sensor_id;sensor_type;location;lat;lon;timestamp;P1;durP1;ratioP1;P2;durP2;ratioP2
16832;SDS011;8533;48.426;10.868;2024-03-25T00:01:41;3.67;;;1.57;;
16832;SDS011;8533;48.426;10.868;2024-03-25T00:04:07;2.93;;;1.60;;
16832;SDS011;8533;48.426;10.868;2024-03-25T00:06:32;4.37;;;1.50;;
16832;SDS011;8533;48.426;10.868;2024-03-25T00:08:59;2.00;;;1.60;;
16832;SDS011;8533;48.426;10.868;2024-03-25T00:11:25;1.83;;;1.20;;
16832;SDS011;8533;48.426;10.868;2024-03-25T00:13:50;4.23;;;1.37;;
16832;SDS011;8533;48.426;10.868;2024-03-25T00:16:16;4.77;;;1.57;;
16832;SDS011;8533;48.426;10.868;2024-03-25T00:18:41;1.83;;;1.33;;
16832;SDS011;8533;48.426;10.868;2024-03-25T00:21:07;1.70;;;1.30;;
16832;SDS011;8533;48.426;10.868;2024-03-25T00:23:32;2.50;;;1.57;;
16832;SDS011;8533;48.426;10.868;2024-03-25T00:25:57;1.30;;;1.20;;
16832;SDS011;8533;48.426;10.868;2024-03-25T00:28:22;1.63;;;1.47;;
16832;SDS011;8533;48.426;10.868;2024-03-25T00:30:48;1.73;;;1.40;;
16832;SDS011;8533;48.426;10.868;2024-03-25T00:33:13;1.47;;;1.07;;
16832;SDS011;8533;48.426;10.868;2024-03-25T00:35:38;5.33;;;1.73;;
16832;SDS011;8533;48.426;10.868;2024-03-25T00:38:04;4.50;;;1.67;;
16832;SDS011;8533;48.426;10.868;2024-03-25T00:40:29;1.33;;;1.13;;
16832;SDS011;8533;48.426;10.868;2024-03-25T00:42:55;4.13;;;1.80;;
16832;SDS011;8533;48.426;10.868;2024-03-25T00:45:20;2.87;;;1.57;;
16832;SDS011;8533;48.426;10.868;2024-03-25T00:47:45;3.00;;;1.40;;
16832;SDS011;8533;48.426;10.868;2024-03-25T00:50:11;2.97;;;1.40;;
16832;SDS011;8533;48.426;10.868;2024-03-25T00:52:36;2.37;;;1.47;;
16832;SDS011;8533;48.426;10.868;2024-03-25T00:55:01;3.90;;;1.60;;
16832;SDS011;8533;48.426;10.868;2024-03-25T00:57:27;1.40;;;1.30;;
16832;SDS011;8533;48.426;10.868;2024-03-25T00:59:54;5.23;;;1.43;;
16832;SDS011;8533;48.426;10.868;2024-03-25T01:02:19;3.83;;;1.47;;
16832;SDS011;8533;48.426;10.868;2024-03-25T01:04:45;3.17;;;1.50;;
16832;SDS011;8533;48.426;10.868;2024-03-25T01:07:10;2.30;;;1.50;;
16832;SDS011;8533;48.426;10.868;2024-03-25T01:09:35;2.40;;;1.50;;
16832;SDS011;8533;48.426;10.868;2024-03-25T01:12:01;4.20;;;1.60;;
16832;SDS011;8533;48.426;10.868;2024-03-25T01:14:26;1.30;;;1.20;;
16832;SDS011;8533;48.426;10.868;2024-03-25T01:16:51;4.60;;;1.60;;
16832;SDS011;8533;48.426;10.868;2024-03-25T01:19:17;1.80;;;1.50;;
16832;SDS011;8533;48.426;10.868;2024-03-25T01:21:43;5.13;;;1.60;;
16832;SDS011;8533;48.426;10.868;2024-03-25T01:24:09;3.53;;;1.60;;
16832;SDS011;8533;48.426;10.868;2024-03-25T01:26:34;1.80;;;1.60;;
16832;SDS011;8533;48.426;10.868;2024-03-25T01:28:59;2.13;;;1.40;;
16832;SDS011;8533;48.426;10.868;2024-03-25T01:31:25;2.13;;;1.37;;
16832;SDS011;8533;48.426;10.868;2024-03-25T01:33:50;3.17;;;1.80;;
16832;SDS011;8533;48.426;10.868;2024-03-25T01:36:16;3.03;;;1.77;;
16832;SDS011;8533;48.426;10.868;2024-03-25T01:38:42;2.07;;;1.40;;
16832;SDS011;8533;48.426;10.868;2024-03-25T01:41:12;2.50;;;1.70;;
16832;SDS011;8533;48.426;10.868;2024-03-25T01:43:40;3.13;;;1.43;;
16832;SDS011;8533;48.426;10.868;2024-03-25T01:46:05;1.70;;;1.60;;
16832;SDS011;8533;48.426;10.868;2024-03-25T01:48:31;2.23;;;1.37;;
16832;SDS011;8533;48.426;10.868;2024-03-25T01:50:57;3.43;;;1.83;;
16832;SDS011;8533;48.426;10.868;2024-03-25T01:53:23;2.87;;;2.00;;
16832;SDS011;8533;48.426;10.868;2024-03-25T01:55:49;1.87;;;1.60;;
16832;SDS011;8533;48.426;10.868;2024-03-25T01:58:18;4.47;;;2.27;;
16832;SDS011;8533;48.426;10.868;2024-03-25T02:00:44;2.53;;;1.83;;
16832;SDS011;8533;48.426;10.868;2024-03-25T02:03:09;3.77;;;1.90;;
16832;SDS011;8533;48.426;10.868;2024-03-25T02:05:35;4.27;;;1.80;;
16832;SDS011;8533;48.426;10.868;2024-03-25T02:08:01;1.67;;;1.40;;
16832;SDS011;8533;48.426;10.868;2024-03-25T02:10:28;2.47;;;1.77;;
16832;SDS011;8533;48.426;10.868;2024-03-25T02:12:54;2.23;;;1.70;;
16832;SDS011;8533;48.426;10.868;2024-03-25T02:15:20;3.13;;;1.83;;
16832;SDS011;8533;48.426;10.868;2024-03-25T02:17:46;2.87;;;1.80;;
16832;SDS011;8533;48.426;10.868;2024-03-25T02:20:11;2.70;;;1.50;;
16832;SDS011;8533;48.426;10.868;2024-03-25T02:22:40;5.33;;;1.93;;
16832;SDS011;8533;48.426;10.868;2024-03-25T02:25:09;2.70;;;2.07;;
16832;SDS011;8533;48.426;10.868;2024-03-25T02:27:38;5.87;;;2.03;;
16832;SDS011;8533;48.426;10.868;2024-03-25T02:32:36;1.77;;;1.67;;
16832;SDS011;8533;48.426;10.868;2024-03-25T02:35:04;1.97;;;1.70;;
16832;SDS011;8533;48.426;10.868;2024-03-25T02:37:32;2.83;;;1.87;;
16832;SDS011;8533;48.426;10.868;2024-03-25T02:39:58;4.30;;;1.80;;
16832;SDS011;8533;48.426;10.868;2024-03-25T02:42:24;2.63;;;2.07;;
16832;SDS011;8533;48.426;10.868;2024-03-25T02:44:51;1.70;;;1.60;;
16832;SDS011;8533;48.426;10.868;2024-03-25T02:47:17;6.03;;;1.77;;
16832;SDS011;8533;48.426;10.868;2024-03-25T02:49:43;5.80;;;2.33;;
16832;SDS011;8533;48.426;10.868;2024-03-25T02:52:08;2.37;;;1.90;;
16832;SDS011;8533;48.426;10.868;2024-03-25T02:54:33;3.03;;;1.90;;
16832;SDS011;8533;48.426;10.868;2024-03-25T02:56:59;2.43;;;1.70;;
16832;SDS011;8533;48.426;10.868;2024-03-25T02:59:24;5.17;;;1.70;;
16832;SDS011;8533;48.426;10.868;2024-03-25T03:01:49;7.47;;;2.10;;
16832;SDS011;8533;48.426;10.868;2024-03-25T03:04:14;5.63;;;2.20;;
16832;SDS011;8533;48.426;10.868;2024-03-25T03:06:40;2.43;;;1.57;;
16832;SDS011;8533;48.426;10.868;2024-03-25T03:09:05;6.70;;;2.17;;
16832;SDS011;8533;48.426;10.868;2024-03-25T03:11:30;2.83;;;1.80;;
16832;SDS011;8533;48.426;10.868;2024-03-25T03:13:55;1.93;;;1.63;;
16832;SDS011;8533;48.426;10.868;2024-03-25T03:16:21;3.43;;;1.73;;
16832;SDS011;8533;48.426;10.868;2024-03-25T03:18:46;3.10;;;1.93;;
16832;SDS011;8533;48.426;10.868;2024-03-25T03:21:11;2.57;;;1.80;;
16832;SDS011;8533;48.426;10.868;2024-03-25T03:23:36;4.27;;;1.90;;
16832;SDS011;8533;48.426;10.868;2024-03-25T03:26:02;5.07;;;2.03;;
16832;SDS011;8533;48.426;10.868;2024-03-25T03:28:27;4.77;;;1.97;;
16832;SDS011;8533;48.426;10.868;2024-03-25T03:30:53;3.73;;;2.27;;
16832;SDS011;8533;48.426;10.868;2024-03-25T03:33:19;2.53;;;1.90;;
16832;SDS011;8533;48.426;10.868;2024-03-25T03:35:44;5.30;;;2.07;;
16832;SDS011;8533;48.426;10.868;2024-03-25T03:38:09;2.70;;;1.83;;
16832;SDS011;8533;48.426;10.868;2024-03-25T03:40:34;2.83;;;1.70;;
16832;SDS011;8533;48.426;10.868;2024-03-25T03:43:00;3.27;;;2.10;;
16832;SDS011;8533;48.426;10.868;2024-03-25T03:45:25;4.03;;;2.23;;
16832;SDS011;8533;48.426;10.868;2024-03-25T03:47:50;2.17;;;1.47;;
16832;SDS011;8533;48.426;10.868;2024-03-25T03:50:16;1.93;;;1.73;;
16832;SDS011;8533;48.426;10.868;2024-03-25T03:52:41;2.20;;;1.73;;
16832;SDS011;8533;48.426;10.868;2024-03-25T03:55:07;3.13;;;1.90;;
16832;SDS011;8533;48.426;10.868;2024-03-25T03:57:32;3.23;;;1.83;;
16832;SDS011;8533;48.426;10.868;2024-03-25T03:59:57;2.80;;;1.80;;
16832;SDS011;8533;48.426;10.868;2024-03-25T04:02:23;2.00;;;1.80;;
16832;SDS011;8533;48.426;10.868;2024-03-25T04:04:48;4.47;;;2.07;;
16832;SDS011;8533;48.426;10.868;2024-03-25T04:07:14;3.97;;;2.20;;
16832;SDS011;8533;48.426;10.868;2024-03-25T04:09:40;3.73;;;2.10;;
16832;SDS011;8533;48.426;10.868;2024-03-25T04:12:05;2.93;;;2.00;;
16832;SDS011;8533;48.426;10.868;2024-03-25T04:14:31;4.27;;;1.80;;
16832;SDS011;8533;48.426;10.868;2024-03-25T04:16:56;3.17;;;2.30;;
16832;SDS011;8533;48.426;10.868;2024-03-25T04:19:25;2.73;;;2.30;;
16832;SDS011;8533;48.426;10.868;2024-03-25T04:21:52;4.63;;;1.97;;
16832;SDS011;8533;48.426;10.868;2024-03-25T04:24:18;3.17;;;2.17;;
16832;SDS011;8533;48.426;10.868;2024-03-25T04:26:44;3.17;;;2.10;;
16832;SDS011;8533;48.426;10.868;2024-03-25T04:29:09;4.73;;;2.00;;
16832;SDS011;8533;48.426;10.868;2024-03-25T04:31:35;3.43;;;2.00;;
16832;SDS011;8533;48.426;10.868;2024-03-25T04:34:01;2.97;;;2.07;;
16832;SDS011;8533;48.426;10.868;2024-03-25T04:36:26;5.87;;;2.20;;
16832;SDS011;8533;48.426;10.868;2024-03-25T04:38:52;2.40;;;2.20;;
16832;SDS011;8533;48.426;10.868;2024-03-25T04:41:17;3.20;;;1.93;;
16832;SDS011;8533;48.426;10.868;2024-03-25T04:43:42;5.57;;;2.40;;
16832;SDS011;8533;48.426;10.868;2024-03-25T04:46:07;5.53;;;2.30;;
16832;SDS011;8533;48.426;10.868;2024-03-25T04:48:33;3.10;;;2.30;;
16832;SDS011;8533;48.426;10.868;2024-03-25T04:50:58;3.53;;;2.60;;
16832;SDS011;8533;48.426;10.868;2024-03-25T04:53:23;3.50;;;2.07;;
16832;SDS011;8533;48.426;10.868;2024-03-25T04:55:49;5.07;;;2.10;;
16832;SDS011;8533;48.426;10.868;2024-03-25T04:58:14;4.07;;;2.30;;
16832;SDS011;8533;48.426;10.868;2024-03-25T05:00:39;4.97;;;2.40;;
16832;SDS011;8533;48.426;10.868;2024-03-25T05:03:05;8.10;;;2.37;;
16832;SDS011;8533;48.426;10.868;2024-03-25T05:05:30;6.10;;;2.57;;
16832;SDS011;8533;48.426;10.868;2024-03-25T05:07:55;3.07;;;2.00;;
16832;SDS011;8533;48.426;10.868;2024-03-25T05:10:20;4.40;;;2.27;;
16832;SDS011;8533;48.426;10.868;2024-03-25T05:12:46;7.10;;;2.73;;
16832;SDS011;8533;48.426;10.868;2024-03-25T05:15:14;5.33;;;2.27;;
16832;SDS011;8533;48.426;10.868;2024-03-25T05:17:40;3.00;;;2.47;;
16832;SDS011;8533;48.426;10.868;2024-03-25T05:20:05;6.17;;;2.37;;
16832;SDS011;8533;48.426;10.868;2024-03-25T05:22:31;5.00;;;2.67;;
16832;SDS011;8533;48.426;10.868;2024-03-25T05:24:56;5.80;;;2.40;;
16832;SDS011;8533;48.426;10.868;2024-03-25T05:27:22;3.60;;;2.40;;
16832;SDS011;8533;48.426;10.868;2024-03-25T05:29:48;3.37;;;2.60;;
16832;SDS011;8533;48.426;10.868;2024-03-25T05:32:14;4.90;;;2.83;;
16832;SDS011;8533;48.426;10.868;2024-03-25T05:34:41;5.10;;;2.77;;
16832;SDS011;8533;48.426;10.868;2024-03-25T05:37:07;6.20;;;2.40;;
16832;SDS011;8533;48.426;10.868;2024-03-25T05:39:32;4.77;;;2.13;;
16832;SDS011;8533;48.426;10.868;2024-03-25T05:41:57;5.50;;;2.67;;
16832;SDS011;8533;48.426;10.868;2024-03-25T05:44:22;4.07;;;2.53;;
16832;SDS011;8533;48.426;10.868;2024-03-25T05:46:48;3.77;;;2.50;;
16832;SDS011;8533;48.426;10.868;2024-03-25T05:49:13;4.57;;;2.43;;
16832;SDS011;8533;48.426;10.868;2024-03-25T05:51:39;3.73;;;2.70;;
16832;SDS011;8533;48.426;10.868;2024-03-25T05:54:04;4.43;;;2.57;;
16832;SDS011;8533;48.426;10.868;2024-03-25T05:56:30;4.20;;;2.80;;
16832;SDS011;8533;48.426;10.868;2024-03-25T05:58:59;5.80;;;2.60;;
16832;SDS011;8533;48.426;10.868;2024-03-25T06:01:25;5.83;;;3.37;;
16832;SDS011;8533;48.426;10.868;2024-03-25T06:03:50;5.77;;;3.03;;
16832;SDS011;8533;48.426;10.868;2024-03-25T06:06:16;3.43;;;2.70;;
16832;SDS011;8533;48.426;10.868;2024-03-25T06:08:42;5.13;;;2.60;;
16832;SDS011;8533;48.426;10.868;2024-03-25T06:11:07;4.00;;;2.77;;
16832;SDS011;8533;48.426;10.868;2024-03-25T06:13:33;4.97;;;2.90;;
16832;SDS011;8533;48.426;10.868;2024-03-25T06:15:58;3.53;;;2.73;;
16832;SDS011;8533;48.426;10.868;2024-03-25T06:18:24;5.07;;;2.97;;
16832;SDS011;8533;48.426;10.868;2024-03-25T06:20:49;4.90;;;2.97;;
16832;SDS011;8533;48.426;10.868;2024-03-25T06:23:21;5.20;;;2.93;;
16832;SDS011;8533;48.426;10.868;2024-03-25T06:25:48;4.27;;;2.63;;
16832;SDS011;8533;48.426;10.868;2024-03-25T06:28:13;4.57;;;2.83;;
16832;SDS011;8533;48.426;10.868;2024-03-25T06:30:39;6.03;;;2.63;;
16832;SDS011;8533;48.426;10.868;2024-03-25T06:33:22;6.80;;;2.43;;
16832;SDS011;8533;48.426;10.868;2024-03-25T06:36:06;4.13;;;2.40;;
16832;SDS011;8533;48.426;10.868;2024-03-25T06:38:32;5.87;;;2.80;;
16832;SDS011;8533;48.426;10.868;2024-03-25T06:40:57;5.10;;;2.67;;
16832;SDS011;8533;48.426;10.868;2024-03-25T06:43:23;6.20;;;2.47;;
16832;SDS011;8533;48.426;10.868;2024-03-25T06:45:49;3.87;;;2.70;;
16832;SDS011;8533;48.426;10.868;2024-03-25T06:48:14;3.83;;;2.80;;
16832;SDS011;8533;48.426;10.868;2024-03-25T06:50:39;5.00;;;2.90;;
16832;SDS011;8533;48.426;10.868;2024-03-25T06:53:04;3.73;;;2.47;;
16832;SDS011;8533;48.426;10.868;2024-03-25T06:55:30;7.23;;;2.70;;
16832;SDS011;8533;48.426;10.868;2024-03-25T06:57:55;4.07;;;2.83;;
16832;SDS011;8533;48.426;10.868;2024-03-25T07:00:20;4.33;;;2.70;;
16832;SDS011;8533;48.426;10.868;2024-03-25T07:02:47;4.53;;;2.47;;
16832;SDS011;8533;48.426;10.868;2024-03-25T07:05:13;5.20;;;2.67;;
16832;SDS011;8533;48.426;10.868;2024-03-25T07:07:38;5.43;;;2.57;;
16832;SDS011;8533;48.426;10.868;2024-03-25T07:10:04;3.73;;;2.60;;
16832;SDS011;8533;48.426;10.868;2024-03-25T07:12:29;4.47;;;2.50;;
16832;SDS011;8533;48.426;10.868;2024-03-25T07:14:55;8.93;;;2.20;;
16832;SDS011;8533;48.426;10.868;2024-03-25T07:17:20;3.63;;;2.37;;
16832;SDS011;8533;48.426;10.868;2024-03-25T07:19:46;6.67;;;3.17;;
16832;SDS011;8533;48.426;10.868;2024-03-25T07:22:12;6.07;;;2.53;;
16832;SDS011;8533;48.426;10.868;2024-03-25T07:24:37;6.43;;;2.33;;
16832;SDS011;8533;48.426;10.868;2024-03-25T07:27:03;4.50;;;2.20;;
16832;SDS011;8533;48.426;10.868;2024-03-25T07:29:28;3.37;;;2.20;;
16832;SDS011;8533;48.426;10.868;2024-03-25T07:31:53;4.13;;;2.10;;
16832;SDS011;8533;48.426;10.868;2024-03-25T07:34:18;4.07;;;2.10;;
16832;SDS011;8533;48.426;10.868;2024-03-25T07:36:44;2.47;;;2.07;;
16832;SDS011;8533;48.426;10.868;2024-03-25T07:39:09;5.87;;;2.57;;
16832;SDS011;8533;48.426;10.868;2024-03-25T07:41:36;4.27;;;2.20;;
16832;SDS011;8533;48.426;10.868;2024-03-25T07:44:01;4.43;;;2.43;;
16832;SDS011;8533;48.426;10.868;2024-03-25T07:46:27;5.63;;;2.27;;
16832;SDS011;8533;48.426;10.868;2024-03-25T07:48:52;2.57;;;2.37;;
16832;SDS011;8533;48.426;10.868;2024-03-25T07:51:17;3.93;;;2.77;;
16832;SDS011;8533;48.426;10.868;2024-03-25T07:53:42;5.10;;;2.47;;
16832;SDS011;8533;48.426;10.868;2024-03-25T07:56:08;6.60;;;2.80;;
16832;SDS011;8533;48.426;10.868;2024-03-25T07:58:34;4.43;;;2.53;;
16832;SDS011;8533;48.426;10.868;2024-03-25T08:00:59;5.00;;;2.70;;
16832;SDS011;8533;48.426;10.868;2024-03-25T08:03:24;6.93;;;2.60;;
16832;SDS011;8533;48.426;10.868;2024-03-25T08:05:50;4.20;;;2.47;;
16832;SDS011;8533;48.426;10.868;2024-03-25T08:08:15;4.33;;;2.60;;
16832;SDS011;8533;48.426;10.868;2024-03-25T08:10:40;6.97;;;2.70;;
16832;SDS011;8533;48.426;10.868;2024-03-25T08:13:06;3.60;;;2.43;;
16832;SDS011;8533;48.426;10.868;2024-03-25T08:15:31;5.03;;;2.20;;
16832;SDS011;8533;48.426;10.868;2024-03-25T08:17:56;5.57;;;2.57;;
16832;SDS011;8533;48.426;10.868;2024-03-25T08:20:21;2.27;;;2.03;;
16832;SDS011;8533;48.426;10.868;2024-03-25T08:22:48;6.17;;;2.60;;
16832;SDS011;8533;48.426;10.868;2024-03-25T08:25:13;2.37;;;2.00;;
16832;SDS011;8533;48.426;10.868;2024-03-25T08:27:38;4.50;;;2.63;;
16832;SDS011;8533;48.426;10.868;2024-03-25T08:30:04;5.03;;;2.50;;
16832;SDS011;8533;48.426;10.868;2024-03-25T08:32:30;4.73;;;2.37;;
16832;SDS011;8533;48.426;10.868;2024-03-25T08:34:57;3.43;;;2.37;;
16832;SDS011;8533;48.426;10.868;2024-03-25T08:37:23;4.20;;;2.63;;
16832;SDS011;8533;48.426;10.868;2024-03-25T08:39:48;3.27;;;2.40;;
16832;SDS011;8533;48.426;10.868;2024-03-25T08:42:13;4.90;;;2.50;;
16832;SDS011;8533;48.426;10.868;2024-03-25T08:44:39;4.67;;;2.43;;
16832;SDS011;8533;48.426;10.868;2024-03-25T08:47:04;4.60;;;2.60;;
16832;SDS011;8533;48.426;10.868;2024-03-25T08:49:29;5.80;;;2.23;;
16832;SDS011;8533;48.426;10.868;2024-03-25T08:51:54;4.63;;;2.80;;
16832;SDS011;8533;48.426;10.868;2024-03-25T08:54:20;3.67;;;2.53;;
16832;SDS011;8533;48.426;10.868;2024-03-25T08:56:45;5.27;;;2.70;;
16832;SDS011;8533;48.426;10.868;2024-03-25T08:59:10;5.50;;;2.67;;
16832;SDS011;8533;48.426;10.868;2024-03-25T09:01:35;4.20;;;2.23;;
16832;SDS011;8533;48.426;10.868;2024-03-25T09:04:01;3.73;;;2.73;;
16832;SDS011;8533;48.426;10.868;2024-03-25T09:06:27;5.77;;;2.90;;
16832;SDS011;8533;48.426;10.868;2024-03-25T09:08:52;6.83;;;2.70;;
16832;SDS011;8533;48.426;10.868;2024-03-25T09:11:36;9.03;;;3.07;;
16832;SDS011;8533;48.426;10.868;2024-03-25T09:14:01;5.20;;;2.30;;
16832;SDS011;8533;48.426;10.868;2024-03-25T09:16:29;5.17;;;2.60;;
16832;SDS011;8533;48.426;10.868;2024-03-25T09:18:55;5.27;;;2.70;;
16832;SDS011;8533;48.426;10.868;2024-03-25T09:21:20;9.10;;;2.23;;
16832;SDS011;8533;48.426;10.868;2024-03-25T09:23:46;3.07;;;2.00;;
16832;SDS011;8533;48.426;10.868;2024-03-25T09:26:13;5.70;;;2.40;;
16832;SDS011;8533;48.426;10.868;2024-03-25T09:28:38;3.27;;;2.13;;
16832;SDS011;8533;48.426;10.868;2024-03-25T09:31:04;2.90;;;2.10;;
16832;SDS011;8533;48.426;10.868;2024-03-25T09:33:30;1.93;;;1.80;;
16832;SDS011;8533;48.426;10.868;2024-03-25T09:35:56;3.47;;;1.80;;
16832;SDS011;8533;48.426;10.868;2024-03-25T09:38:21;5.40;;;2.30;;
16832;SDS011;8533;48.426;10.868;2024-03-25T09:40:46;3.43;;;2.13;;
16832;SDS011;8533;48.426;10.868;2024-03-25T09:43:16;2.23;;;1.80;;
16832;SDS011;8533;48.426;10.868;2024-03-25T09:45:56;3.90;;;1.70;;
16832;SDS011;8533;48.426;10.868;2024-03-25T09:48:24;2.30;;;2.10;;
16832;SDS011;8533;48.426;10.868;2024-03-25T09:50:49;3.03;;;1.67;;
16832;SDS011;8533;48.426;10.868;2024-03-25T09:53:16;1.87;;;1.73;;
16832;SDS011;8533;48.426;10.868;2024-03-25T09:55:42;2.60;;;1.50;;
16832;SDS011;8533;48.426;10.868;2024-03-25T09:58:07;3.50;;;1.83;;
16832;SDS011;8533;48.426;10.868;2024-03-25T10:00:33;2.73;;;1.70;;
16832;SDS011;8533;48.426;10.868;2024-03-25T10:02:58;1.93;;;1.53;;
16832;SDS011;8533;48.426;10.868;2024-03-25T10:05:23;3.00;;;1.80;;
16832;SDS011;8533;48.426;10.868;2024-03-25T10:07:49;2.40;;;1.90;;
16832;SDS011;8533;48.426;10.868;2024-03-25T10:10:18;3.23;;;1.73;;
16832;SDS011;8533;48.426;10.868;2024-03-25T10:12:45;2.20;;;1.63;;
16832;SDS011;8533;48.426;10.868;2024-03-25T10:15:14;3.80;;;1.90;;
16832;SDS011;8533;48.426;10.868;2024-03-25T10:17:41;2.33;;;2.07;;
16832;SDS011;8533;48.426;10.868;2024-03-25T10:20:06;4.13;;;1.80;;
16832;SDS011;8533;48.426;10.868;2024-03-25T10:22:40;2.67;;;1.80;;
16832;SDS011;8533;48.426;10.868;2024-03-25T10:27:57;1.97;;;1.60;;
16832;SDS011;8533;48.426;10.868;2024-03-25T10:30:23;2.13;;;1.20;;
16832;SDS011;8533;48.426;10.868;2024-03-25T10:33:04;1.90;;;1.50;;
16832;SDS011;8533;48.426;10.868;2024-03-25T10:35:34;3.33;;;1.70;;
16832;SDS011;8533;48.426;10.868;2024-03-25T10:40:29;4.53;;;1.63;;
16832;SDS011;8533;48.426;10.868;2024-03-25T10:45:31;1.50;;;1.40;;
16832;SDS011;8533;48.426;10.868;2024-03-25T10:47:59;5.13;;;1.77;;
16832;SDS011;8533;48.426;10.868;2024-03-25T10:50:29;2.90;;;1.53;;
16832;SDS011;8533;48.426;10.868;2024-03-25T10:52:55;1.70;;;1.60;;
16832;SDS011;8533;48.426;10.868;2024-03-25T10:55:22;1.97;;;1.73;;
16832;SDS011;8533;48.426;10.868;2024-03-25T10:57:49;3.30;;;1.80;;
16832;SDS011;8533;48.426;10.868;2024-03-25T11:00:16;3.20;;;1.67;;
16832;SDS011;8533;48.426;10.868;2024-03-25T11:02:42;2.33;;;1.80;;
16832;SDS011;8533;48.426;10.868;2024-03-25T11:05:09;3.03;;;2.20;;
16832;SDS011;8533;48.426;10.868;2024-03-25T11:07:36;4.57;;;1.90;;
16832;SDS011;8533;48.426;10.868;2024-03-25T11:10:04;3.57;;;1.70;;
16832;SDS011;8533;48.426;10.868;2024-03-25T11:12:32;2.50;;;1.80;;
16832;SDS011;8533;48.426;10.868;2024-03-25T11:15:10;1.70;;;1.50;;
16832;SDS011;8533;48.426;10.868;2024-03-25T11:17:36;2.03;;;1.70;;
16832;SDS011;8533;48.426;10.868;2024-03-25T11:20:11;2.33;;;1.60;;
16832;SDS011;8533;48.426;10.868;2024-03-25T11:22:51;1.83;;;1.30;;
16832;SDS011;8533;48.426;10.868;2024-03-25T11:25:18;1.57;;;1.23;;
16832;SDS011;8533;48.426;10.868;2024-03-25T11:27:45;3.53;;;1.57;;
16832;SDS011;8533;48.426;10.868;2024-03-25T11:30:12;1.97;;;1.60;;
16832;SDS011;8533;48.426;10.868;2024-03-25T11:32:51;3.17;;;1.60;;
16832;SDS011;8533;48.426;10.868;2024-03-25T11:35:17;2.37;;;1.60;;
16832;SDS011;8533;48.426;10.868;2024-03-25T11:37:43;3.37;;;1.97;;
16832;SDS011;8533;48.426;10.868;2024-03-25T11:40:09;2.10;;;1.50;;
16832;SDS011;8533;48.426;10.868;2024-03-25T11:42:38;4.87;;;1.60;;
16832;SDS011;8533;48.426;10.868;2024-03-25T11:45:04;3.53;;;1.90;;
16832;SDS011;8533;48.426;10.868;2024-03-25T11:47:30;1.80;;;1.70;;
16832;SDS011;8533;48.426;10.868;2024-03-25T11:49:56;2.03;;;1.50;;
16832;SDS011;8533;48.426;10.868;2024-03-25T11:52:21;1.70;;;1.60;;
16832;SDS011;8533;48.426;10.868;2024-03-25T11:54:53;2.17;;;1.40;;
16832;SDS011;8533;48.426;10.868;2024-03-25T11:57:19;3.00;;;1.70;;
16832;SDS011;8533;48.426;10.868;2024-03-25T11:59:45;2.00;;;1.63;;
16832;SDS011;8533;48.426;10.868;2024-03-25T12:02:13;2.63;;;1.50;;
16832;SDS011;8533;48.426;10.868;2024-03-25T12:04:41;1.70;;;1.50;;
16832;SDS011;8533;48.426;10.868;2024-03-25T12:07:08;2.17;;;1.40;;
16832;SDS011;8533;48.426;10.868;2024-03-25T12:09:36;1.53;;;1.43;;
16832;SDS011;8533;48.426;10.868;2024-03-25T12:12:19;1.37;;;1.27;;
16832;SDS011;8533;48.426;10.868;2024-03-25T12:14:45;2.67;;;1.20;;
16832;SDS011;8533;48.426;10.868;2024-03-25T12:17:10;1.73;;;1.17;;
16832;SDS011;8533;48.426;10.868;2024-03-25T12:19:36;2.87;;;1.20;;
16832;SDS011;8533;48.426;10.868;2024-03-25T12:22:01;1.43;;;0.93;;
16832;SDS011;8533;48.426;10.868;2024-03-25T12:24:28;1.33;;;1.17;;
16832;SDS011;8533;48.426;10.868;2024-03-25T12:26:54;1.40;;;1.30;;
16832;SDS011;8533;48.426;10.868;2024-03-25T12:29:19;1.90;;;1.10;;
16832;SDS011;8533;48.426;10.868;2024-03-25T12:31:53;1.57;;;1.30;;
16832;SDS011;8533;48.426;10.868;2024-03-25T12:34:19;2.97;;;1.10;;
16832;SDS011;8533;48.426;10.868;2024-03-25T12:36:44;1.73;;;1.33;;
16832;SDS011;8533;48.426;10.868;2024-03-25T12:39:14;2.20;;;1.53;;
16832;SDS011;8533;48.426;10.868;2024-03-25T12:41:40;2.50;;;1.50;;
16832;SDS011;8533;48.426;10.868;2024-03-25T12:44:06;2.13;;;1.53;;
16832;SDS011;8533;48.426;10.868;2024-03-25T12:46:31;2.27;;;1.27;;
16832;SDS011;8533;48.426;10.868;2024-03-25T12:48:57;1.90;;;1.37;;
16832;SDS011;8533;48.426;10.868;2024-03-25T12:51:22;1.80;;;1.60;;
16832;SDS011;8533;48.426;10.868;2024-03-25T12:53:47;2.17;;;1.50;;
16832;SDS011;8533;48.426;10.868;2024-03-25T12:56:13;1.30;;;1.20;;
16832;SDS011;8533;48.426;10.868;2024-03-25T12:58:38;2.00;;;1.10;;
16832;SDS011;8533;48.426;10.868;2024-03-25T13:01:04;2.40;;;1.60;;
16832;SDS011;8533;48.426;10.868;2024-03-25T13:03:29;1.70;;;1.43;;
16832;SDS011;8533;48.426;10.868;2024-03-25T13:05:54;1.23;;;1.10;;
16832;SDS011;8533;48.426;10.868;2024-03-25T13:08:22;2.37;;;1.33;;
16832;SDS011;8533;48.426;10.868;2024-03-25T13:10:47;1.50;;;1.40;;
16832;SDS011;8533;48.426;10.868;2024-03-25T13:13:13;2.23;;;1.47;;
16832;SDS011;8533;48.426;10.868;2024-03-25T13:15:38;1.93;;;1.40;;
16832;SDS011;8533;48.426;10.868;2024-03-25T13:18:03;2.90;;;1.50;;
16832;SDS011;8533;48.426;10.868;2024-03-25T13:20:29;3.13;;;1.67;;
16832;SDS011;8533;48.426;10.868;2024-03-25T13:22:54;1.63;;;1.43;;
16832;SDS011;8533;48.426;10.868;2024-03-25T13:25:24;2.47;;;1.47;;
16832;SDS011;8533;48.426;10.868;2024-03-25T13:27:50;3.10;;;1.33;;
16832;SDS011;8533;48.426;10.868;2024-03-25T13:30:15;4.93;;;1.63;;
16832;SDS011;8533;48.426;10.868;2024-03-25T13:32:40;1.47;;;1.30;;
16832;SDS011;8533;48.426;10.868;2024-03-25T13:35:06;1.70;;;1.60;;
16832;SDS011;8533;48.426;10.868;2024-03-25T13:37:31;3.07;;;1.70;;
16832;SDS011;8533;48.426;10.868;2024-03-25T13:39:57;1.97;;;1.37;;
16832;SDS011;8533;48.426;10.868;2024-03-25T13:42:22;2.00;;;1.40;;
16832;SDS011;8533;48.426;10.868;2024-03-25T13:44:47;2.23;;;1.53;;
16832;SDS011;8533;48.426;10.868;2024-03-25T13:47:13;3.67;;;1.67;;
16832;SDS011;8533;48.426;10.868;2024-03-25T13:49:38;3.20;;;2.00;;
16832;SDS011;8533;48.426;10.868;2024-03-25T13:52:03;2.33;;;1.70;;
16832;SDS011;8533;48.426;10.868;2024-03-25T13:54:30;3.13;;;1.80;;
16832;SDS011;8533;48.426;10.868;2024-03-25T13:56:56;4.07;;;1.73;;
16832;SDS011;8533;48.426;10.868;2024-03-25T13:59:21;2.57;;;1.80;;
16832;SDS011;8533;48.426;10.868;2024-03-25T14:01:47;4.97;;;1.60;;
16832;SDS011;8533;48.426;10.868;2024-03-25T14:04:12;3.70;;;2.00;;
16832;SDS011;8533;48.426;10.868;2024-03-25T14:06:38;2.00;;;1.80;;
16832;SDS011;8533;48.426;10.868;2024-03-25T14:09:05;3.00;;;1.57;;
16832;SDS011;8533;48.426;10.868;2024-03-25T14:11:33;2.13;;;1.80;;
16832;SDS011;8533;48.426;10.868;2024-03-25T14:13:59;3.37;;;1.70;;
16832;SDS011;8533;48.426;10.868;2024-03-25T14:16:25;5.43;;;1.77;;
16832;SDS011;8533;48.426;10.868;2024-03-25T14:18:50;1.63;;;1.53;;
16832;SDS011;8533;48.426;10.868;2024-03-25T14:21:16;1.80;;;1.60;;
16832;SDS011;8533;48.426;10.868;2024-03-25T14:23:41;5.27;;;2.10;;
16832;SDS011;8533;48.426;10.868;2024-03-25T14:26:08;3.57;;;2.23;;
16832;SDS011;8533;48.426;10.868;2024-03-25T14:28:34;3.50;;;1.83;;
16832;SDS011;8533;48.426;10.868;2024-03-25T14:30:59;3.43;;;1.90;;
16832;SDS011;8533;48.426;10.868;2024-03-25T14:33:25;3.30;;;1.80;;
16832;SDS011;8533;48.426;10.868;2024-03-25T14:35:50;2.10;;;1.90;;
16832;SDS011;8533;48.426;10.868;2024-03-25T14:38:15;2.37;;;1.70;;
16832;SDS011;8533;48.426;10.868;2024-03-25T14:40:41;2.20;;;1.33;;
16832;SDS011;8533;48.426;10.868;2024-03-25T14:43:06;2.20;;;1.70;;
16832;SDS011;8533;48.426;10.868;2024-03-25T14:45:32;2.63;;;1.30;;
16832;SDS011;8533;48.426;10.868;2024-03-25T14:47:57;2.17;;;1.60;;
16832;SDS011;8533;48.426;10.868;2024-03-25T14:50:22;3.20;;;1.40;;
16832;SDS011;8533;48.426;10.868;2024-03-25T14:52:48;1.33;;;1.23;;